sensor_id;sensor_type;location;lat;lon;timestamp;temperature;humidity
22706;DHT22;11520;51.198;4.468;2023-07-13T00:02:24;17.90;99.90
22706;DHT22;11520;51.198;4.468;2023-07-13T00:04:52;17.90;99.90
22706;DHT22;11520;51.198;4.468;2023-07-13T00:07:20;17.90;99.90
22706;DHT22;11520;51.198;4.468;2023-07-13T00:09:47;17.90;99.90
22706;DHT22;11520;51.198;4.468;2023-07-13T00:12:31;17.80;99.90
22706;DHT22;11520;51.198;4.468;2023-07-13T00:14:58;17.80;99.90
22706;DHT22;11520;51.198;4.468;2023-07-13T00:17:25;17.80;99.90
22706;DHT22;11520;51.198;4.468;2023-07-13T00:19:51;17.70;99.90
22706;DHT22;11520;51.198;4.468;2023-07-13T00:22:17;17.70;99.90
22706;DHT22;11520;51.198;4.468;2023-07-13T00:24:44;17.70;99.90
22706;DHT22;11520;51.198;4.468;2023-07-13T00:27:09;17.80;99.90
22706;DHT22;11520;51.198;4.468;2023-07-13T00:29:36;17.70;99.90
22706;DHT22;11520;51.198;4.468;2023-07-13T00:32:03;17.70;99.90
22706;DHT22;11520;51.198;4.468;2023-07-13T00:34:31;17.70;99.90
22706;DHT22;11520;51.198;4.468;2023-07-13T00:36:57;17.70;99.90
22706;DHT22;11520;51.198;4.468;2023-07-13T00:39:22;17.70;99.90
22706;DHT22;11520;51.198;4.468;2023-07-13T00:41:48;17.60;99.90
22706;DHT22;11520;51.198;4.468;2023-07-13T00:44:15;17.60;99.90
22706;DHT22;11520;51.198;4.468;2023-07-13T00:46:41;17.50;99.90
22706;DHT22;11520;51.198;4.468;2023-07-13T00:49:12;17.50;99.90
22706;DHT22;11520;51.198;4.468;2023-07-13T00:51:52;17.60;99.90
22706;DHT22;11520;51.198;4.468;2023-07-13T00:54:24;17.60;99.90
22706;DHT22;11520;51.198;4.468;2023-07-13T00:56:52;17.50;99.90
22706;DHT22;11520;51.198;4.468;2023-07-13T00:59:20;17.50;99.90
22706;DHT22;11520;51.198;4.468;2023-07-13T01:01:46;17.50;99.90
22706;DHT22;11520;51.198;4.468;2023-07-13T01:04:12;17.40;99.90
22706;DHT22;11520;51.198;4.468;2023-07-13T01:06:40;17.50;99.90
22706;DHT22;11520;51.198;4.468;2023-07-13T01:09:09;17.40;99.90
22706;DHT22;11520;51.198;4.468;2023-07-13T01:11:37;17.50;99.90
22706;DHT22;11520;51.198;4.468;2023-07-13T01:14:03;17.50;99.90
22706;DHT22;11520;51.198;4.468;2023-07-13T01:16:31;17.40;99.90
22706;DHT22;11520;51.198;4.468;2023-07-13T01:18:58;17.50;99.90
22706;DHT22;11520;51.198;4.468;2023-07-13T01:21:24;17.40;99.90
22706;DHT22;11520;51.198;4.468;2023-07-13T01:23:49;17.30;99.90
22706;DHT22;11520;51.198;4.468;2023-07-13T01:26:17;17.40;99.90
22706;DHT22;11520;51.198;4.468;2023-07-13T01:28:43;17.30;99.90
22706;DHT22;11520;51.198;4.468;2023-07-13T01:31:09;17.30;99.90
22706;DHT22;11520;51.198;4.468;2023-07-13T01:33:37;17.30;99.90
22706;DHT22;11520;51.198;4.468;2023-07-13T01:36:08;17.20;99.90
22706;DHT22;11520;51.198;4.468;2023-07-13T01:38:35;17.20;99.90
22706;DHT22;11520;51.198;4.468;2023-07-13T01:41:02;17.20;99.90
22706;DHT22;11520;51.198;4.468;2023-07-13T01:43:28;17.10;99.90
22706;DHT22;11520;51.198;4.468;2023-07-13T01:45:53;17.20;99.90
22706;DHT22;11520;51.198;4.468;2023-07-13T01:48:20;17.20;99.90
22706;DHT22;11520;51.198;4.468;2023-07-13T01:50:47;17.20;99.90
22706;DHT22;11520;51.198;4.468;2023-07-13T01:53:12;17.20;99.90
22706;DHT22;11520;51.198;4.468;2023-07-13T01:55:38;17.20;99.90
22706;DHT22;11520;51.198;4.468;2023-07-13T01:58:04;17.20;99.90
22706;DHT22;11520;51.198;4.468;2023-07-13T02:00:30;17.20;99.90
22706;DHT22;11520;51.198;4.468;2023-07-13T02:02:58;17.10;99.90
22706;DHT22;11520;51.198;4.468;2023-07-13T02:05:24;17.10;99.90
22706;DHT22;11520;51.198;4.468;2023-07-13T02:07:49;17.20;99.90
22706;DHT22;11520;51.198;4.468;2023-07-13T02:10:15;17.20;99.90
22706;DHT22;11520;51.198;4.468;2023-07-13T02:12:43;17.20;99.90
22706;DHT22;11520;51.198;4.468;2023-07-13T02:15:10;17.10;99.90
22706;DHT22;11520;51.198;4.468;2023-07-13T02:17:36;17.10;99.90
22706;DHT22;11520;51.198;4.468;2023-07-13T02:20:04;17.10;99.90
22706;DHT22;11520;51.198;4.468;2023-07-13T02:22:35;17.10;99.90
22706;DHT22;11520;51.198;4.468;2023-07-13T02:25:01;17.10;99.90
22706;DHT22;11520;51.198;4.468;2023-07-13T02:27:27;17.00;99.90
22706;DHT22;11520;51.198;4.468;2023-07-13T02:29:54;16.90;99.90
22706;DHT22;11520;51.198;4.468;2023-07-13T02:32:21;16.90;99.90
22706;DHT22;11520;51.198;4.468;2023-07-13T02:34:47;16.90;99.90
22706;DHT22;11520;51.198;4.468;2023-07-13T02:37:12;16.80;99.90
22706;DHT22;11520;51.198;4.468;2023-07-13T02:39:38;16.90;99.90
22706;DHT22;11520;51.198;4.468;2023-07-13T02:42:04;16.80;99.90
22706;DHT22;11520;51.198;4.468;2023-07-13T02:44:31;16.80;99.90
22706;DHT22;11520;51.198;4.468;2023-07-13T02:46:57;16.80;99.90
22706;DHT22;11520;51.198;4.468;2023-07-13T02:49:24;17.00;99.90
22706;DHT22;11520;51.198;4.468;2023-07-13T02:51:51;17.00;99.90
22706;DHT22;11520;51.198;4.468;2023-07-13T02:54:16;17.10;99.90
22706;DHT22;11520;51.198;4.468;2023-07-13T02:56:42;17.00;99.90
22706;DHT22;11520;51.198;4.468;2023-07-13T02:59:09;17.00;99.90
22706;DHT22;11520;51.198;4.468;2023-07-13T03:01:36;17.10;99.90
22706;DHT22;11520;51.198;4.468;2023-07-13T03:04:02;17.20;99.90
22706;DHT22;11520;51.198;4.468;2023-07-13T03:06:28;17.20;99.90
22706;DHT22;11520;51.198;4.468;2023-07-13T03:08:55;17.20;99.90
22706;DHT22;11520;51.198;4.468;2023-07-13T03:11:22;17.30;99.90
22706;DHT22;11520;51.198;4.468;2023-07-13T03:13:48;17.40;99.90
22706;DHT22;11520;51.198;4.468;2023-07-13T03:16:14;17.30;99.90
22706;DHT22;11520;51.198;4.468;2023-07-13T03:18:42;17.30;99.90
22706;DHT22;11520;51.198;4.468;2023-07-13T03:21:08;17.30;99.90
22706;DHT22;11520;51.198;4.468;2023-07-13T03:23:33;17.30;99.90
22706;DHT22;11520;51.198;4.468;2023-07-13T03:26:06;17.30;99.90
22706;DHT22;11520;51.198;4.468;2023-07-13T03:28:33;17.40;99.90
22706;DHT22;11520;51.198;4.468;2023-07-13T03:31:00;17.30;99.90
22706;DHT22;11520;51.198;4.468;2023-07-13T03:33:27;17.30;99.90
22706;DHT22;11520;51.198;4.468;2023-07-13T03:35:53;17.30;99.90
22706;DHT22;11520;51.198;4.468;2023-07-13T03:38:18;17.40;99.90
22706;DHT22;11520;51.198;4.468;2023-07-13T03:40:45;17.40;99.90
22706;DHT22;11520;51.198;4.468;2023-07-13T03:43:12;17.40;99.90
22706;DHT22;11520;51.198;4.468;2023-07-13T03:45:38;17.50;99.90
22706;DHT22;11520;51.198;4.468;2023-07-13T03:48:04;17.60;99.90
22706;DHT22;11520;51.198;4.468;2023-07-13T03:50:31;17.40;99.90
22706;DHT22;11520;51.198;4.468;2023-07-13T03:52:57;17.40;99.90
22706;DHT22;11520;51.198;4.468;2023-07-13T03:55:23;17.50;99.90
22706;DHT22;11520;51.198;4.468;2023-07-13T03:57:57;17.50;99.90
22706;DHT22;11520;51.198;4.468;2023-07-13T04:00:23;17.50;99.90
22706;DHT22;11520;51.198;4.468;2023-07-13T04:02:49;17.50;99.90
22706;DHT22;11520;51.198;4.468;2023-07-13T04:05:15;17.40;99.90
22706;DHT22;11520;51.198;4.468;2023-07-13T04:07:41;17.40;99.90
22706;DHT22;11520;51.198;4.468;2023-07-13T04:10:07;17.50;99.90
22706;DHT22;11520;51.198;4.468;2023-07-13T04:12:34;17.40;99.90
22706;DHT22;11520;51.198;4.468;2023-07-13T04:14:59;17.40;99.90
22706;DHT22;11520;51.198;4.468;2023-07-13T04:17:25;17.30;99.90
22706;DHT22;11520;51.198;4.468;2023-07-13T04:19:50;17.30;99.90
22706;DHT22;11520;51.198;4.468;2023-07-13T04:22:16;17.40;99.90
22706;DHT22;11520;51.198;4.468;2023-07-13T04:24:41;17.50;99.90
22706;DHT22;11520;51.198;4.468;2023-07-13T04:27:07;17.60;99.90
22706;DHT22;11520;51.198;4.468;2023-07-13T04:29:33;17.60;99.90
22706;DHT22;11520;51.198;4.468;2023-07-13T04:31:58;17.70;99.90
22706;DHT22;11520;51.198;4.468;2023-07-13T04:34:24;17.80;99.90
22706;DHT22;11520;51.198;4.468;2023-07-13T04:36:50;17.90;99.90
22706;DHT22;11520;51.198;4.468;2023-07-13T04:39:16;17.90;99.90
22706;DHT22;11520;51.198;4.468;2023-07-13T04:41:41;17.80;99.90
22706;DHT22;11520;51.198;4.468;2023-07-13T04:44:07;17.90;99.90
22706;DHT22;11520;51.198;4.468;2023-07-13T04:46:33;17.80;99.90
22706;DHT22;11520;51.198;4.468;2023-07-13T04:48:58;17.90;99.90
22706;DHT22;11520;51.198;4.468;2023-07-13T04:51:24;17.90;99.90
22706;DHT22;11520;51.198;4.468;2023-07-13T04:53:50;18.00;99.90
22706;DHT22;11520;51.198;4.468;2023-07-13T04:56:15;18.00;99.90
22706;DHT22;11520;51.198;4.468;2023-07-13T04:58:41;18.00;99.90
22706;DHT22;11520;51.198;4.468;2023-07-13T05:01:07;18.00;99.90
22706;DHT22;11520;51.198;4.468;2023-07-13T05:03:34;18.20;99.90
22706;DHT22;11520;51.198;4.468;2023-07-13T05:06:05;18.20;99.90
22706;DHT22;11520;51.198;4.468;2023-07-13T05:08:31;18.30;99.90
22706;DHT22;11520;51.198;4.468;2023-07-13T05:10:59;18.20;99.90
22706;DHT22;11520;51.198;4.468;2023-07-13T05:13:25;18.20;99.90
22706;DHT22;11520;51.198;4.468;2023-07-13T05:15:59;18.20;99.90
22706;DHT22;11520;51.198;4.468;2023-07-13T05:18:25;18.40;99.90
22706;DHT22;11520;51.198;4.468;2023-07-13T05:21:05;18.50;99.90
22706;DHT22;11520;51.198;4.468;2023-07-13T05:23:32;18.50;99.90
22706;DHT22;11520;51.198;4.468;2023-07-13T05:25:58;18.60;99.90
22706;DHT22;11520;51.198;4.468;2023-07-13T05:28:25;18.60;99.90
22706;DHT22;11520;51.198;4.468;2023-07-13T05:30:51;18.70;99.90
22706;DHT22;11520;51.198;4.468;2023-07-13T05:33:17;18.60;99.90
22706;DHT22;11520;51.198;4.468;2023-07-13T05:35:42;18.60;99.90
22706;DHT22;11520;51.198;4.468;2023-07-13T05:38:08;18.60;99.90
22706;DHT22;11520;51.198;4.468;2023-07-13T05:40:35;18.50;99.90
22706;DHT22;11520;51.198;4.468;2023-07-13T05:43:00;18.50;99.90
22706;DHT22;11520;51.198;4.468;2023-07-13T05:45:26;18.40;99.90
22706;DHT22;11520;51.198;4.468;2023-07-13T05:47:52;18.50;99.90
22706;DHT22;11520;51.198;4.468;2023-07-13T05:50:17;18.50;99.90
22706;DHT22;11520;51.198;4.468;2023-07-13T05:52:43;18.60;99.90
22706;DHT22;11520;51.198;4.468;2023-07-13T05:55:08;18.50;99.90
22706;DHT22;11520;51.198;4.468;2023-07-13T05:57:34;18.70;99.90
22706;DHT22;11520;51.198;4.468;2023-07-13T06:00:00;18.80;99.90
22706;DHT22;11520;51.198;4.468;2023-07-13T06:02:25;18.80;99.90
22706;DHT22;11520;51.198;4.468;2023-07-13T06:04:52;18.80;99.90
22706;DHT22;11520;51.198;4.468;2023-07-13T06:07:17;18.80;99.90
22706;DHT22;11520;51.198;4.468;2023-07-13T06:09:43;18.70;99.90
22706;DHT22;11520;51.198;4.468;2023-07-13T06:12:08;18.90;99.90
22706;DHT22;11520;51.198;4.468;2023-07-13T06:14:34;18.90;99.90
22706;DHT22;11520;51.198;4.468;2023-07-13T06:17:00;18.90;99.90
22706;DHT22;11520;51.198;4.468;2023-07-13T06:19:25;18.90;99.90
22706;DHT22;11520;51.198;4.468;2023-07-13T06:21:51;19.00;99.90
22706;DHT22;11520;51.198;4.468;2023-07-13T06:24:16;18.90;99.90
22706;DHT22;11520;51.198;4.468;2023-07-13T06:26:42;18.90;99.90
22706;DHT22;11520;51.198;4.468;2023-07-13T06:29:08;18.90;99.90
22706;DHT22;11520;51.198;4.468;2023-07-13T06:31:33;19.10;99.90
22706;DHT22;11520;51.198;4.468;2023-07-13T06:33:59;19.30;99.90
22706;DHT22;11520;51.198;4.468;2023-07-13T06:36:24;19.60;99.90
22706;DHT22;11520;51.198;4.468;2023-07-13T06:38:50;19.80;99.90
22706;DHT22;11520;51.198;4.468;2023-07-13T06:41:15;20.00;99.90
22706;DHT22;11520;51.198;4.468;2023-07-13T06:43:41;20.40;99.90
22706;DHT22;11520;51.198;4.468;2023-07-13T06:46:07;21.00;99.90
22706;DHT22;11520;51.198;4.468;2023-07-13T06:48:33;21.50;99.90
22706;DHT22;11520;51.198;4.468;2023-07-13T06:50:58;21.90;99.90
22706;DHT22;11520;51.198;4.468;2023-07-13T06:53:24;22.30;99.90
22706;DHT22;11520;51.198;4.468;2023-07-13T06:55:50;22.40;99.90
22706;DHT22;11520;51.198;4.468;2023-07-13T06:58:17;23.10;99.90
22706;DHT22;11520;51.198;4.468;2023-07-13T07:00:43;24.00;99.90
22706;DHT22;11520;51.198;4.468;2023-07-13T07:03:09;24.60;99.90
22706;DHT22;11520;51.198;4.468;2023-07-13T07:05:35;24.50;99.90
22706;DHT22;11520;51.198;4.468;2023-07-13T07:08:00;24.30;99.90
22706;DHT22;11520;51.198;4.468;2023-07-13T07:10:28;25.20;99.90
22706;DHT22;11520;51.198;4.468;2023-07-13T07:12:54;25.10;99.90
22706;DHT22;11520;51.198;4.468;2023-07-13T07:15:19;25.00;99.90
22706;DHT22;11520;51.198;4.468;2023-07-13T07:17:45;25.30;99.90
22706;DHT22;11520;51.198;4.468;2023-07-13T07:20:12;25.30;99.90
22706;DHT22;11520;51.198;4.468;2023-07-13T07:22:37;24.90;99.90
22706;DHT22;11520;51.198;4.468;2023-07-13T07:25:03;25.80;99.90
22706;DHT22;11520;51.198;4.468;2023-07-13T07:27:29;27.30;99.90
22706;DHT22;11520;51.198;4.468;2023-07-13T07:29:54;27.70;99.90
22706;DHT22;11520;51.198;4.468;2023-07-13T07:32:20;27.70;99.90
22706;DHT22;11520;51.198;4.468;2023-07-13T07:34:46;27.60;99.90
22706;DHT22;11520;51.198;4.468;2023-07-13T07:37:12;28.30;99.90
22706;DHT22;11520;51.198;4.468;2023-07-13T07:39:38;27.70;99.90
22706;DHT22;11520;51.198;4.468;2023-07-13T07:42:04;26.60;99.90
22706;DHT22;11520;51.198;4.468;2023-07-13T07:44:31;26.10;99.90
22706;DHT22;11520;51.198;4.468;2023-07-13T07:46:57;25.50;99.90
22706;DHT22;11520;51.198;4.468;2023-07-13T07:49:22;26.30;99.90
22706;DHT22;11520;51.198;4.468;2023-07-13T07:51:48;27.70;99.90
22706;DHT22;11520;51.198;4.468;2023-07-13T07:54:13;29.20;98.70
22706;DHT22;11520;51.198;4.468;2023-07-13T07:56:40;28.90;98.20
22706;DHT22;11520;51.198;4.468;2023-07-13T07:59:05;28.40;98.60
22706;DHT22;11520;51.198;4.468;2023-07-13T08:01:31;27.80;99.60
22706;DHT22;11520;51.198;4.468;2023-07-13T08:03:56;28.10;99.70
22706;DHT22;11520;51.198;4.468;2023-07-13T08:06:23;29.00;97.80
22706;DHT22;11520;51.198;4.468;2023-07-13T08:08:49;29.50;96.50
22706;DHT22;11520;51.198;4.468;2023-07-13T08:11:17;29.00;95.90
22706;DHT22;11520;51.198;4.468;2023-07-13T08:13:43;28.80;96.20
22706;DHT22;11520;51.198;4.468;2023-07-13T08:16:09;29.10;95.90
22706;DHT22;11520;51.198;4.468;2023-07-13T08:18:35;29.20;95.70
22706;DHT22;11520;51.198;4.468;2023-07-13T08:21:08;29.40;94.70
22706;DHT22;11520;51.198;4.468;2023-07-13T08:23:35;29.80;94.50
22706;DHT22;11520;51.198;4.468;2023-07-13T08:26:01;30.60;92.90
22706;DHT22;11520;51.198;4.468;2023-07-13T08:28:27;30.80;91.30
22706;DHT22;11520;51.198;4.468;2023-07-13T08:30:53;30.20;92.10
22706;DHT22;11520;51.198;4.468;2023-07-13T08:33:20;30.50;91.90
22706;DHT22;11520;51.198;4.468;2023-07-13T08:35:47;31.10;91.70
22706;DHT22;11520;51.198;4.468;2023-07-13T08:38:16;32.70;88.00
22706;DHT22;11520;51.198;4.468;2023-07-13T08:40:42;33.30;81.30
22706;DHT22;11520;51.198;4.468;2023-07-13T08:43:28;33.50;77.80
22706;DHT22;11520;51.198;4.468;2023-07-13T08:46:16;32.50;75.30
22706;DHT22;11520;51.198;4.468;2023-07-13T08:48:52;31.50;78.10
22706;DHT22;11520;51.198;4.468;2023-07-13T08:54:16;31.30;78.50
22706;DHT22;11520;51.198;4.468;2023-07-13T08:56:45;31.60;79.30
22706;DHT22;11520;51.198;4.468;2023-07-13T08:59:14;31.70;76.90
22706;DHT22;11520;51.198;4.468;2023-07-13T09:04:35;33.20;71.00
22706;DHT22;11520;51.198;4.468;2023-07-13T09:10:26;34.40;67.70
22706;DHT22;11520;51.198;4.468;2023-07-13T09:15:49;34.50;65.70
22706;DHT22;11520;51.198;4.468;2023-07-13T09:18:23;34.90;63.40
22706;DHT22;11520;51.198;4.468;2023-07-13T09:21:03;36.60;60.90
22706;DHT22;11520;51.198;4.468;2023-07-13T09:23:31;36.10;57.10
22706;DHT22;11520;51.198;4.468;2023-07-13T09:26:04;35.70;56.90
22706;DHT22;11520;51.198;4.468;2023-07-13T09:28:41;36.60;56.30
22706;DHT22;11520;51.198;4.468;2023-07-13T09:33:40;35.30;56.80
22706;DHT22;11520;51.198;4.468;2023-07-13T09:36:22;34.30;58.80
22706;DHT22;11520;51.198;4.468;2023-07-13T09:38:59;34.10;59.50
22706;DHT22;11520;51.198;4.468;2023-07-13T09:41:28;34.10;59.40
22706;DHT22;11520;51.198;4.468;2023-07-13T09:44:17;33.90;59.20
22706;DHT22;11520;51.198;4.468;2023-07-13T09:46:45;33.00;60.20
22706;DHT22;11520;51.198;4.468;2023-07-13T09:49:11;31.70;65.80
22706;DHT22;11520;51.198;4.468;2023-07-13T09:51:41;30.20;75.40
22706;DHT22;11520;51.198;4.468;2023-07-13T09:54:22;29.30;84.60
22706;DHT22;11520;51.198;4.468;2023-07-13T09:56:54;28.30;89.50
22706;DHT22;11520;51.198;4.468;2023-07-13T09:59:21;27.60;92.00
22706;DHT22;11520;51.198;4.468;2023-07-13T10:01:49;26.80;93.60
22706;DHT22;11520;51.198;4.468;2023-07-13T10:04:18;25.90;95.80
22706;DHT22;11520;51.198;4.468;2023-07-13T10:06:45;25.90;99.10
22706;DHT22;11520;51.198;4.468;2023-07-13T10:09:16;26.00;99.90
22706;DHT22;11520;51.198;4.468;2023-07-13T10:11:42;26.00;99.90
22706;DHT22;11520;51.198;4.468;2023-07-13T10:14:15;25.80;99.90
22706;DHT22;11520;51.198;4.468;2023-07-13T10:16:45;25.70;99.90
22706;DHT22;11520;51.198;4.468;2023-07-13T10:19:12;25.40;99.90
22706;DHT22;11520;51.198;4.468;2023-07-13T10:22:00;25.30;99.90
22706;DHT22;11520;51.198;4.468;2023-07-13T10:24:35;25.70;99.90
22706;DHT22;11520;51.198;4.468;2023-07-13T10:27:05;27.30;99.90
22706;DHT22;11520;51.198;4.468;2023-07-13T10:30:17;29.10;99.90
22706;DHT22;11520;51.198;4.468;2023-07-13T10:32:34;30.30;96.90
22706;DHT22;11520;51.198;4.468;2023-07-13T10:35:01;31.50;96.00
22706;DHT22;11520;51.198;4.468;2023-07-13T10:37:39;32.70;90.80
22706;DHT22;11520;51.198;4.468;2023-07-13T10:40:12;33.60;88.40
22706;DHT22;11520;51.198;4.468;2023-07-13T10:42:42;34.30;84.10
22706;DHT22;11520;51.198;4.468;2023-07-13T10:45:21;35.20;80.90
22706;DHT22;11520;51.198;4.468;2023-07-13T10:47:49;36.00;75.00
22706;DHT22;11520;51.198;4.468;2023-07-13T10:50:23;36.20;68.60
22706;DHT22;11520;51.198;4.468;2023-07-13T10:52:54;36.30;66.60
22706;DHT22;11520;51.198;4.468;2023-07-13T10:58:41;36.50;59.80
22706;DHT22;11520;51.198;4.468;2023-07-13T11:01:16;35.80;60.90
22706;DHT22;11520;51.198;4.468;2023-07-13T11:03:55;35.30;61.20
22706;DHT22;11520;51.198;4.468;2023-07-13T11:08:51;36.00;58.80
22706;DHT22;11520;51.198;4.468;2023-07-13T11:13:56;35.00;56.40
22706;DHT22;11520;51.198;4.468;2023-07-13T11:18:51;33.40;61.60
22706;DHT22;11520;51.198;4.468;2023-07-13T11:21:22;32.70;61.50
22706;DHT22;11520;51.198;4.468;2023-07-13T11:24:01;32.20;62.00
22706;DHT22;11520;51.198;4.468;2023-07-13T11:31:51;30.50;66.60
22706;DHT22;11520;51.198;4.468;2023-07-13T11:34:24;30.20;67.70
22706;DHT22;11520;51.198;4.468;2023-07-13T11:36:51;29.40;67.70
22706;DHT22;11520;51.198;4.468;2023-07-13T11:41:57;26.70;87.50
22706;DHT22;11520;51.198;4.468;2023-07-13T11:44:25;25.70;92.70
22706;DHT22;11520;51.198;4.468;2023-07-13T11:46:55;24.90;97.70
22706;DHT22;11520;51.198;4.468;2023-07-13T11:49:23;24.60;99.90
22706;DHT22;11520;51.198;4.468;2023-07-13T11:51:50;24.30;99.90
22706;DHT22;11520;51.198;4.468;2023-07-13T11:54:29;24.00;99.90
22706;DHT22;11520;51.198;4.468;2023-07-13T11:59:44;23.50;99.90
22706;DHT22;11520;51.198;4.468;2023-07-13T12:02:18;23.50;99.90
22706;DHT22;11520;51.198;4.468;2023-07-13T12:04:49;23.10;99.90
22706;DHT22;11520;51.198;4.468;2023-07-13T12:07:18;22.70;99.90
22706;DHT22;11520;51.198;4.468;2023-07-13T12:09:44;22.80;99.90
22706;DHT22;11520;51.198;4.468;2023-07-13T12:12:17;22.90;99.90
22706;DHT22;11520;51.198;4.468;2023-07-13T12:14:43;23.20;99.90
22706;DHT22;11520;51.198;4.468;2023-07-13T12:17:29;23.30;99.90
22706;DHT22;11520;51.198;4.468;2023-07-13T12:19:55;23.30;99.90
22706;DHT22;11520;51.198;4.468;2023-07-13T12:22:21;23.70;99.90
22706;DHT22;11520;51.198;4.468;2023-07-13T12:24:48;24.30;99.90
22706;DHT22;11520;51.198;4.468;2023-07-13T12:27:26;24.50;99.90
22706;DHT22;11520;51.198;4.468;2023-07-13T12:29:59;24.60;99.90
22706;DHT22;11520;51.198;4.468;2023-07-13T12:32:27;24.90;99.90
22706;DHT22;11520;51.198;4.468;2023-07-13T12:35:12;24.90;99.90
22706;DHT22;11520;51.198;4.468;2023-07-13T12:37:42;24.80;99.90
22706;DHT22;11520;51.198;4.468;2023-07-13T12:40:16;24.50;99.90
22706;DHT22;11520;51.198;4.468;2023-07-13T12:42:49;24.70;99.90
22706;DHT22;11520;51.198;4.468;2023-07-13T12:45:22;24.80;99.90
22706;DHT22;11520;51.198;4.468;2023-07-13T12:47:53;25.00;99.90
22706;DHT22;11520;51.198;4.468;2023-07-13T12:50:21;25.00;99.90
22706;DHT22;11520;51.198;4.468;2023-07-13T12:52:53;24.80;99.90
22706;DHT22;11520;51.198;4.468;2023-07-13T12:55:20;24.70;99.90
22706;DHT22;11520;51.198;4.468;2023-07-13T12:57:57;24.60;99.90
22706;DHT22;11520;51.198;4.468;2023-07-13T13:00:32;24.60;99.90
22706;DHT22;11520;51.198;4.468;2023-07-13T13:03:04;24.50;99.90
22706;DHT22;11520;51.198;4.468;2023-07-13T13:05:32;24.30;99.90
22706;DHT22;11520;51.198;4.468;2023-07-13T13:07:59;24.20;99.90
22706;DHT22;11520;51.198;4.468;2023-07-13T13:10:25;24.40;99.90
22706;DHT22;11520;51.198;4.468;2023-07-13T13:12:52;24.60;99.90
22706;DHT22;11520;51.198;4.468;2023-07-13T13:15:18;24.70;99.90
22706;DHT22;11520;51.198;4.468;2023-07-13T13:17:43;24.80;99.90
22706;DHT22;11520;51.198;4.468;2023-07-13T13:20:20;24.80;99.90
22706;DHT22;11520;51.198;4.468;2023-07-13T13:22:46;25.30;99.90
22706;DHT22;11520;51.198;4.468;2023-07-13T13:25:13;25.50;99.90
22706;DHT22;11520;51.198;4.468;2023-07-13T13:27:41;25.60;99.90
22706;DHT22;11520;51.198;4.468;2023-07-13T13:30:11;25.90;99.90
22706;DHT22;11520;51.198;4.468;2023-07-13T13:32:42;26.00;99.90
22706;DHT22;11520;51.198;4.468;2023-07-13T13:35:14;26.00;99.90
22706;DHT22;11520;51.198;4.468;2023-07-13T13:37:39;25.90;99.90
22706;DHT22;11520;51.198;4.468;2023-07-13T13:40:18;25.70;99.90
22706;DHT22;11520;51.198;4.468;2023-07-13T13:42:44;25.90;99.90
22706;DHT22;11520;51.198;4.468;2023-07-13T13:45:10;26.20;99.90
22706;DHT22;11520;51.198;4.468;2023-07-13T13:47:38;26.30;99.90
22706;DHT22;11520;51.198;4.468;2023-07-13T13:50:16;26.60;99.90
22706;DHT22;11520;51.198;4.468;2023-07-13T13:52:42;27.00;99.90
22706;DHT22;11520;51.198;4.468;2023-07-13T13:55:16;26.90;99.90
22706;DHT22;11520;51.198;4.468;2023-07-13T13:57:45;27.00;99.90
22706;DHT22;11520;51.198;4.468;2023-07-13T14:00:14;27.10;99.90
22706;DHT22;11520;51.198;4.468;2023-07-13T14:02:45;27.10;99.90
22706;DHT22;11520;51.198;4.468;2023-07-13T14:05:22;27.00;99.90
22706;DHT22;11520;51.198;4.468;2023-07-13T14:07:48;26.70;99.90
22706;DHT22;11520;51.198;4.468;2023-07-13T14:10:16;26.80;99.90
22706;DHT22;11520;51.198;4.468;2023-07-13T14:12:44;26.90;99.90
22706;DHT22;11520;51.198;4.468;2023-07-13T14:17:45;26.90;99.90
22706;DHT22;11520;51.198;4.468;2023-07-13T14:20:13;26.80;99.90
22706;DHT22;11520;51.198;4.468;2023-07-13T14:22:40;26.60;99.90
22706;DHT22;11520;51.198;4.468;2023-07-13T14:25:15;26.00;99.90
22706;DHT22;11520;51.198;4.468;2023-07-13T14:27:42;25.70;99.90
22706;DHT22;11520;51.198;4.468;2023-07-13T14:30:20;25.60;99.90
22706;DHT22;11520;51.198;4.468;2023-07-13T14:32:46;25.40;99.90
22706;DHT22;11520;51.198;4.468;2023-07-13T14:35:14;25.40;99.90
22706;DHT22;11520;51.198;4.468;2023-07-13T14:37:40;25.90;99.90
22706;DHT22;11520;51.198;4.468;2023-07-13T14:40:30;26.00;99.90
22706;DHT22;11520;51.198;4.468;2023-07-13T14:42:57;26.10;99.90
22706;DHT22;11520;51.198;4.468;2023-07-13T14:45:23;26.30;99.90
22706;DHT22;11520;51.198;4.468;2023-07-13T14:47:50;26.10;99.90
22706;DHT22;11520;51.198;4.468;2023-07-13T14:50:30;25.60;99.90
22706;DHT22;11520;51.198;4.468;2023-07-13T14:52:56;25.30;99.90
22706;DHT22;11520;51.198;4.468;2023-07-13T14:55:21;25.00;99.90
22706;DHT22;11520;51.198;4.468;2023-07-13T14:57:48;25.00;99.90
22706;DHT22;11520;51.198;4.468;2023-07-13T15:00:17;25.10;99.90
22706;DHT22;11520;51.198;4.468;2023-07-13T15:02:48;25.20;99.90
22706;DHT22;11520;51.198;4.468;2023-07-13T15:05:19;25.20;99.90
22706;DHT22;11520;51.198;4.468;2023-07-13T15:07:45;25.00;99.90
22706;DHT22;11520;51.198;4.468;2023-07-13T15:12:44;25.30;99.90
22706;DHT22;11520;51.198;4.468;2023-07-13T15:15:10;25.10;99.90
22706;DHT22;11520;51.198;4.468;2023-07-13T15:17:38;25.00;99.90
22706;DHT22;11520;51.198;4.468;2023-07-13T15:22:37;24.80;99.90
22706;DHT22;11520;51.198;4.468;2023-07-13T15:25:03;24.80;99.90
22706;DHT22;11520;51.198;4.468;2023-07-13T15:27:29;25.00;99.90
22706;DHT22;11520;51.198;4.468;2023-07-13T15:29:54;25.20;99.90
22706;DHT22;11520;51.198;4.468;2023-07-13T15:32:20;25.20;99.90
22706;DHT22;11520;51.198;4.468;2023-07-13T15:34:47;25.30;99.90
22706;DHT22;11520;51.198;4.468;2023-07-13T15:37:16;25.50;99.90
22706;DHT22;11520;51.198;4.468;2023-07-13T15:39:42;25.80;99.90
22706;DHT22;11520;51.198;4.468;2023-07-13T15:42:15;25.90;99.90
22706;DHT22;11520;51.198;4.468;2023-07-13T15:44:41;26.20;99.90
22706;DHT22;11520;51.198;4.468;2023-07-13T15:47:11;26.40;99.90
22706;DHT22;11520;51.198;4.468;2023-07-13T15:49:38;26.40;99.90
22706;DHT22;11520;51.198;4.468;2023-07-13T15:52:04;26.40;99.90
22706;DHT22;11520;51.198;4.468;2023-07-13T15:54:31;26.50;99.90
22706;DHT22;11520;51.198;4.468;2023-07-13T15:57:01;26.50;99.90
22706;DHT22;11520;51.198;4.468;2023-07-13T15:59:27;26.50;99.90
22706;DHT22;11520;51.198;4.468;2023-07-13T16:01:53;25.90;99.90
22706;DHT22;11520;51.198;4.468;2023-07-13T16:04:19;25.80;99.90
22706;DHT22;11520;51.198;4.468;2023-07-13T16:06:45;25.80;99.90
22706;DHT22;11520;51.198;4.468;2023-07-13T16:09:21;26.00;99.90
22706;DHT22;11520;51.198;4.468;2023-07-13T16:11:47;26.00;99.90
22706;DHT22;11520;51.198;4.468;2023-07-13T16:14:14;25.90;99.90
22706;DHT22;11520;51.198;4.468;2023-07-13T16:16:41;25.90;99.90
22706;DHT22;11520;51.198;4.468;2023-07-13T16:19:06;26.10;99.90
22706;DHT22;11520;51.198;4.468;2023-07-13T16:21:44;25.90;99.90